createdAt,value
2018-12-16T00:09:14.408Z,23.82
2018-12-16T00:14:38.563Z,23.84
2018-12-16T00:17:14.240Z,23.81
2018-12-16T00:19:44.729Z,23.81
2018-12-16T00:27:48.524Z,23.84
2018-12-16T00:33:08.947Z,23.81
2018-12-16T00:35:38.540Z,23.83
2018-12-16T00:38:07.897Z,23.88
2018-12-16T00:40:37.090Z,23.82
2018-12-16T00:43:06.067Z,23.85
2018-12-16T00:48:27.153Z,23.85
2018-12-16T00:51:00.782Z,23.84
2018-12-16T00:53:30.148Z,23.90
2018-12-16T00:56:08.502Z,23.83
2018-12-16T00:58:38.072Z,23.86
2018-12-16T01:01:17.347Z,23.89
2018-12-16T01:03:51.214Z,23.94
2018-12-16T01:06:24.310Z,23.87
2018-12-16T01:08:53.572Z,23.86
2018-12-16T01:11:22.268Z,23.92
2018-12-16T01:13:51.164Z,23.88
2018-12-16T01:16:20.243Z,23.86
2018-12-16T01:18:48.862Z,23.91
2018-12-16T01:21:17.487Z,23.83
2018-12-16T01:23:46.250Z,23.87
2018-12-16T01:26:14.885Z,23.89
2018-12-16T01:28:44.683Z,23.97
2018-12-16T01:31:13.417Z,23.93
2018-12-16T01:33:42.032Z,23.91
2018-12-16T01:36:10.599Z,23.88
2018-12-16T01:38:39.195Z,23.95
2018-12-16T01:41:07.874Z,23.90
2018-12-16T01:43:36.366Z,23.92
2018-12-16T01:46:04.979Z,23.95
2018-12-16T01:48:33.472Z,23.98
2018-12-16T01:51:01.954Z,23.96
2018-12-16T01:53:30.570Z,23.91
2018-12-16T01:55:59.064Z,23.93
2018-12-16T01:58:27.568Z,23.94
2018-12-16T02:00:56.106Z,23.92
2018-12-16T02:03:24.819Z,23.92
2018-12-16T02:05:53.395Z,23.95
2018-12-16T02:08:22.083Z,23.95
2018-12-16T02:10:50.569Z,24.02
2018-12-16T02:13:19.066Z,23.95
2018-12-16T02:15:47.716Z,23.94
2018-12-16T02:18:16.211Z,23.92
2018-12-16T02:20:44.700Z,23.94
2018-12-16T02:23:13.315Z,23.94
2018-12-16T02:25:41.794Z,23.99
2018-12-16T02:28:10.309Z,23.99
2018-12-16T02:30:38.963Z,24.00
2018-12-16T02:33:07.535Z,23.99
2018-12-16T02:35:36.062Z,23.92
2018-12-16T02:38:04.607Z,23.79
2018-12-16T02:40:33.131Z,23.92
2018-12-16T02:43:01.737Z,23.94
2018-12-16T02:45:30.626Z,23.96
2018-12-16T02:47:59.094Z,23.98
2018-12-16T02:50:27.568Z,24.00
2018-12-16T02:52:56.149Z,23.99
2018-12-16T02:55:24.610Z,23.93
2018-12-16T02:57:53.072Z,23.92
2018-12-16T03:00:22.132Z,23.94
2018-12-16T03:02:50.614Z,23.93
2018-12-16T03:05:19.116Z,23.96
2018-12-16T03:07:47.881Z,24.03
2018-12-16T03:10:16.523Z,24.03
2018-12-16T03:12:44.998Z,24.05
2018-12-16T03:15:13.944Z,23.98
2018-12-16T03:17:42.424Z,23.99
2018-12-16T03:20:10.903Z,23.98
2018-12-16T03:22:40.002Z,23.95
2018-12-16T03:25:08.531Z,23.94
2018-12-16T03:27:37.045Z,24.00
2018-12-16T03:30:07.076Z,24.02
2018-12-16T03:32:35.628Z,23.96
2018-12-16T03:35:04.123Z,24.05
2018-12-16T03:37:32.979Z,23.99
2018-12-16T03:40:01.450Z,24.00
2018-12-16T03:42:29.983Z,23.91
2018-12-16T03:44:58.803Z,23.99
2018-12-16T03:47:27.292Z,23.95
2018-12-16T03:49:55.744Z,24.03
2018-12-16T03:52:24.802Z,24.00
2018-12-16T03:54:53.324Z,24.00
2018-12-16T03:57:21.796Z,24.01
2018-12-16T03:59:50.889Z,24.02
2018-12-16T04:02:19.539Z,24.03
2018-12-16T04:04:48.038Z,24.02
2018-12-16T04:07:16.587Z,23.99
2018-12-16T04:09:45.059Z,23.95
2018-12-16T04:12:19.539Z,23.94
2018-12-16T04:14:48.027Z,23.97
2018-12-16T04:17:16.520Z,23.98
2018-12-16T04:19:45.612Z,23.99
2018-12-16T04:22:14.212Z,24.00
2018-12-16T04:24:42.682Z,24.00
2018-12-16T04:27:11.222Z,23.98
2018-12-16T04:29:39.683Z,23.89
2018-12-16T04:32:08.359Z,23.95
2018-12-16T04:34:36.891Z,23.99
2018-12-16T04:37:05.350Z,23.98
2018-12-16T04:39:33.918Z,23.99
2018-12-16T04:42:02.583Z,23.99
2018-12-16T04:44:31.049Z,24.01
2018-12-16T04:46:59.704Z,23.90
2018-12-16T04:49:28.235Z,23.96
2018-12-16T04:51:56.907Z,23.95
2018-12-16T04:54:25.383Z,23.97
2018-12-16T04:56:53.951Z,23.94
2018-12-16T04:59:22.426Z,23.96
2018-12-16T05:01:51.033Z,23.97
2018-12-16T05:04:19.635Z,23.97
2018-12-16T05:06:48.136Z,23.95
2018-12-16T05:09:16.627Z,23.91
2018-12-16T05:11:50.579Z,23.98
2018-12-16T05:14:19.059Z,23.94
2018-12-16T05:16:47.555Z,23.97
2018-12-16T05:19:16.180Z,23.91
2018-12-16T05:21:44.834Z,23.93
2018-12-16T05:24:13.302Z,24.00
2018-12-16T05:26:42.270Z,23.88
2018-12-16T05:29:10.748Z,23.89
2018-12-16T05:31:39.262Z,23.89
2018-12-16T05:34:07.908Z,23.92
2018-12-16T05:36:36.399Z,23.94
2018-12-16T05:39:05.851Z,23.87
2018-12-16T05:41:39.686Z,23.89
2018-12-16T05:44:08.174Z,23.96
2018-12-16T05:46:36.647Z,23.91
2018-12-16T05:49:05.329Z,23.83
2018-12-16T05:51:33.846Z,23.86
2018-12-16T05:54:02.319Z,23.89
2018-12-16T05:56:30.918Z,23.92
2018-12-16T05:58:59.394Z,23.91
2018-12-16T06:01:27.882Z,23.89
2018-12-16T06:03:56.486Z,23.87
2018-12-16T06:06:24.998Z,23.85
2018-12-16T06:08:53.450Z,23.82
2018-12-16T06:11:22.929Z,23.87
2018-12-16T06:13:51.402Z,23.89
2018-12-16T06:16:19.854Z,23.88
2018-12-16T06:18:48.806Z,23.77
2018-12-16T06:21:17.667Z,23.92
2018-12-16T06:23:46.135Z,23.86
2018-12-16T06:26:14.762Z,23.88
2018-12-16T06:28:43.246Z,23.74
2018-12-16T06:31:12.062Z,23.85
2018-12-16T06:33:40.667Z,23.89
2018-12-16T06:36:09.136Z,23.86
2018-12-16T06:38:54.006Z,23.85
2018-12-16T06:41:23.122Z,23.85
2018-12-16T06:43:51.688Z,23.82
2018-12-16T06:46:20.327Z,23.73
2018-12-16T06:48:48.847Z,23.75
2018-12-16T06:51:17.655Z,23.74
2018-12-16T06:53:46.367Z,23.81
2018-12-16T06:56:14.838Z,23.80
2018-12-16T06:58:43.310Z,23.86
2018-12-16T07:01:12.063Z,23.85
2018-12-16T07:03:40.526Z,23.83
2018-12-16T07:06:09.022Z,23.80
2018-12-16T07:08:38.155Z,23.77
2018-12-16T07:11:06.667Z,23.79
2018-12-16T07:13:35.271Z,23.80
2018-12-16T07:16:03.854Z,23.83
2018-12-16T07:18:32.379Z,23.79
2018-12-16T07:21:00.914Z,23.81
2018-12-16T07:23:29.865Z,23.85
2018-12-16T07:25:58.356Z,23.81
2018-12-16T07:28:26.861Z,23.78
2018-12-16T07:30:55.515Z,23.80
2018-12-16T07:33:24.003Z,23.85
2018-12-16T07:35:52.617Z,23.83
2018-12-16T07:38:21.240Z,23.83
2018-12-16T07:40:51.409Z,23.84
2018-12-16T07:43:20.015Z,23.88
2018-12-16T07:45:48.607Z,23.85
2018-12-16T07:48:17.715Z,23.84
2018-12-16T07:50:46.289Z,23.83
2018-12-16T07:53:14.986Z,23.82
2018-12-16T07:55:43.455Z,23.87
2018-12-16T07:58:12.091Z,23.86
2018-12-16T08:00:40.818Z,23.83
2018-12-16T08:03:09.290Z,23.84
2018-12-16T08:05:37.803Z,23.77
2018-12-16T08:08:06.514Z,23.77
2018-12-16T08:10:35.006Z,23.80
2018-12-16T08:13:03.490Z,23.76
2018-12-16T08:15:32.039Z,23.79
2018-12-16T08:18:00.515Z,23.82
2018-12-16T08:20:29.005Z,23.83
2018-12-16T08:22:57.531Z,23.82
2018-12-16T08:25:26.011Z,23.78
2018-12-16T08:27:54.487Z,23.76
2018-12-16T08:30:23.190Z,23.78
2018-12-16T08:32:51.670Z,23.74
2018-12-16T08:35:20.138Z,23.82
2018-12-16T08:37:49.054Z,23.85
2018-12-16T08:40:17.539Z,23.77
2018-12-16T08:42:46.036Z,23.68
2018-12-16T08:45:14.659Z,23.72
2018-12-16T08:47:43.147Z,23.76
2018-12-16T08:50:11.614Z,23.67
2018-12-16T08:52:40.254Z,23.76
2018-12-16T08:55:09.256Z,23.83
2018-12-16T08:57:37.744Z,23.81
2018-12-16T09:00:06.362Z,23.75
2018-12-16T09:02:34.854Z,23.72
2018-12-16T09:05:03.407Z,23.74
2018-12-16T09:07:37.267Z,23.71
2018-12-16T09:10:02.554Z,23.71
2018-12-16T09:12:31.051Z,23.70
2018-12-16T09:14:59.685Z,23.69
2018-12-16T09:17:28.167Z,23.68
2018-12-16T09:19:56.722Z,23.71
2018-12-16T09:22:26.639Z,23.71
2018-12-16T09:24:58.861Z,23.66
2018-12-16T09:27:27.795Z,23.56
2018-12-16T09:29:57.077Z,23.64
2018-12-16T09:32:25.539Z,23.70
2018-12-16T09:34:54.454Z,23.61
2018-12-16T09:37:23.023Z,23.71
2018-12-16T09:39:51.562Z,23.70
2018-12-16T09:42:20.102Z,23.68
2018-12-16T09:44:48.605Z,23.63
2018-12-16T09:47:17.090Z,23.59
2018-12-16T09:49:45.690Z,23.61
2018-12-16T09:52:14.159Z,23.52
2018-12-16T09:54:44.432Z,23.63
2018-12-16T09:57:13.911Z,23.54
2018-12-16T09:59:42.461Z,23.57
2018-12-16T10:02:10.930Z,23.60
2018-12-16T10:04:39.603Z,23.57
2018-12-16T10:07:08.110Z,23.62
2018-12-16T10:09:36.583Z,23.64
2018-12-16T10:12:05.251Z,23.65
2018-12-16T10:14:33.748Z,23.68
2018-12-16T10:17:02.210Z,23.70
2018-12-16T10:19:31.163Z,23.73
2018-12-16T10:21:59.791Z,23.72
2018-12-16T10:24:28.251Z,23.68
2018-12-16T10:26:56.863Z,23.67
2018-12-16T10:29:25.351Z,23.70
2018-12-16T10:31:53.827Z,23.67
2018-12-16T10:34:22.339Z,23.70
2018-12-16T10:36:50.810Z,23.66
2018-12-16T10:39:19.308Z,23.70
2018-12-16T10:41:48.411Z,23.69
2018-12-16T10:44:16.881Z,23.76
2018-12-16T10:46:45.383Z,23.67
2018-12-16T10:49:13.999Z,23.68
2018-12-16T10:51:42.763Z,23.64
2018-12-16T10:54:11.227Z,23.58
2018-12-16T10:56:39.752Z,23.58
2018-12-16T10:59:08.334Z,23.62
2018-12-16T11:01:36.846Z,23.64
2018-12-16T11:04:06.271Z,23.61
2018-12-16T11:06:34.862Z,23.57
2018-12-16T11:09:03.423Z,23.57
2018-12-16T11:11:32.069Z,23.63
2018-12-16T11:14:00.540Z,23.64
2018-12-16T11:16:29.005Z,23.63
2018-12-16T11:18:57.547Z,23.64
2018-12-16T11:21:31.307Z,23.64
2018-12-16T11:24:00.357Z,23.59
2018-12-16T11:26:28.832Z,23.61
2018-12-16T11:28:57.315Z,23.57
2018-12-16T11:31:25.938Z,23.62
2018-12-16T11:33:54.418Z,23.60
2018-12-16T11:36:22.906Z,23.57
2018-12-16T11:38:51.868Z,23.58
2018-12-16T11:41:20.339Z,23.58
2018-12-16T11:43:48.794Z,23.55
2018-12-16T11:46:17.419Z,23.56
2018-12-16T11:48:45.894Z,23.57
2018-12-16T11:51:14.367Z,23.57
2018-12-16T11:53:42.917Z,23.59
2018-12-16T11:56:11.408Z,23.57
2018-12-16T11:58:39.887Z,23.54
2018-12-16T12:01:08.634Z,23.62
2018-12-16T12:03:37.103Z,23.57
2018-12-16T12:06:05.591Z,23.56
2018-12-16T12:08:34.258Z,23.57
2018-12-16T12:11:02.900Z,23.58
2018-12-16T12:13:31.411Z,23.61
2018-12-16T12:16:00.019Z,23.63
2018-12-16T12:18:28.490Z,23.61
2018-12-16T12:21:06.596Z,23.55
2018-12-16T12:23:35.139Z,23.53
2018-12-16T12:26:03.686Z,23.58
2018-12-16T12:28:32.542Z,23.55
2018-12-16T12:31:01.147Z,23.59
2018-12-16T12:33:29.623Z,23.58
2018-12-16T12:35:58.232Z,23.58
2018-12-16T12:38:26.702Z,23.49
2018-12-16T12:40:55.188Z,23.54
2018-12-16T12:43:25.028Z,23.54
2018-12-16T12:45:53.626Z,23.56
2018-12-16T12:48:22.215Z,23.52
2018-12-16T12:50:50.756Z,23.58
2018-12-16T12:53:19.239Z,23.60
2018-12-16T12:55:47.760Z,23.57
2018-12-16T12:58:16.615Z,23.62
2018-12-16T13:00:45.099Z,23.56
2018-12-16T13:03:13.813Z,23.47
2018-12-16T13:05:42.435Z,23.52
2018-12-16T13:08:10.922Z,23.56
2018-12-16T13:10:39.387Z,23.57
2018-12-16T13:13:08.595Z,23.59
2018-12-16T13:15:37.095Z,23.57
2018-12-16T13:18:05.626Z,23.57
2018-12-16T13:20:34.559Z,23.50
2018-12-16T13:23:03.026Z,23.54
2018-12-16T13:25:43.150Z,23.50
2018-12-16T13:28:11.819Z,23.57
2018-12-16T13:30:40.484Z,23.56
2018-12-16T13:33:08.974Z,23.60
2018-12-16T13:35:37.943Z,23.61
2018-12-16T13:38:06.403Z,23.63
2018-12-16T13:40:34.891Z,23.54
2018-12-16T13:43:03.436Z,23.57
2018-12-16T13:45:31.923Z,23.52
2018-12-16T13:48:00.395Z,23.55
2018-12-16T13:50:29.002Z,23.62
2018-12-16T13:52:57.511Z,23.63
2018-12-16T13:55:25.986Z,23.61
2018-12-16T13:57:54.967Z,23.57
2018-12-16T14:00:23.475Z,23.61
2018-12-16T14:02:51.958Z,23.53
2018-12-16T14:05:20.647Z,23.53
2018-12-16T14:07:49.111Z,23.53
2018-12-16T14:10:17.583Z,23.57
2018-12-16T14:12:46.172Z,23.55
2018-12-16T14:15:14.633Z,23.63
2018-12-16T14:17:43.214Z,23.63
2018-12-16T14:20:11.747Z,23.64
2018-12-16T14:22:40.215Z,23.50
2018-12-16T14:25:08.694Z,23.51
2018-12-16T14:27:37.566Z,23.55
2018-12-16T14:30:08.154Z,23.58
2018-12-16T14:32:36.630Z,23.53
2018-12-16T14:35:05.562Z,23.54
2018-12-16T14:37:34.024Z,23.60
2018-12-16T14:40:02.509Z,23.62
2018-12-16T14:42:31.139Z,23.58
2018-12-16T14:44:59.610Z,23.51
2018-12-16T14:47:28.079Z,23.56
2018-12-16T14:49:57.863Z,23.57
2018-12-16T14:52:26.323Z,23.59
2018-12-16T14:54:54.784Z,23.54
2018-12-16T14:57:23.386Z,23.55
2018-12-16T14:59:51.863Z,23.62
2018-12-16T15:02:20.379Z,23.56
2018-12-16T15:04:49.743Z,23.55
2018-12-16T15:07:18.308Z,23.56
2018-12-16T15:09:46.787Z,23.59
2018-12-16T15:12:15.395Z,23.62
2018-12-16T15:14:43.877Z,23.58
2018-12-16T15:17:12.356Z,23.58
2018-12-16T15:19:40.877Z,23.61
2018-12-16T15:22:09.353Z,23.62
2018-12-16T15:24:37.823Z,23.62
2018-12-16T15:27:06.414Z,23.57
2018-12-16T15:29:34.888Z,23.58
2018-12-16T15:32:03.375Z,23.56
2018-12-16T15:34:32.236Z,23.60
2018-12-16T15:37:00.794Z,23.55
2018-12-16T15:39:29.320Z,23.61
2018-12-16T15:41:57.968Z,23.57
2018-12-16T15:44:26.434Z,23.57
2018-12-16T15:46:54.904Z,23.55
2018-12-16T15:49:23.499Z,23.58
2018-12-16T15:51:52.043Z,23.62
2018-12-16T15:54:20.521Z,23.61
2018-12-16T15:56:49.058Z,23.62
2018-12-16T15:59:17.546Z,23.63
2018-12-16T16:01:46.003Z,23.65
2018-12-16T16:04:14.543Z,23.68
2018-12-16T16:06:43.015Z,23.64
2018-12-16T16:09:11.571Z,23.67
2018-12-16T16:11:40.479Z,23.62
2018-12-16T16:14:08.971Z,23.65
2018-12-16T16:16:37.487Z,23.57
2018-12-16T16:19:06.026Z,23.56
2018-12-16T16:21:34.559Z,23.65
2018-12-16T16:24:03.024Z,23.60
2018-12-16T16:26:31.632Z,23.57
2018-12-16T16:29:00.110Z,23.60
2018-12-16T16:31:28.671Z,23.53
2018-12-16T16:33:57.754Z,23.58
2018-12-16T16:36:26.217Z,23.64
2018-12-16T16:38:54.902Z,23.61
2018-12-16T16:41:23.782Z,23.66
2018-12-16T16:43:52.326Z,23.64
2018-12-16T16:46:20.819Z,23.60
2018-12-16T16:48:49.432Z,23.55
2018-12-16T16:51:17.936Z,23.63
2018-12-16T16:53:46.423Z,23.60
2018-12-16T16:56:15.027Z,23.55
2018-12-16T16:58:43.494Z,23.54
2018-12-16T17:01:11.990Z,23.61
2018-12-16T17:03:40.510Z,23.64
2018-12-16T17:06:08.992Z,23.62
2018-12-16T17:08:37.487Z,23.54
2018-12-16T17:11:11.523Z,23.52
2018-12-16T17:13:40.002Z,23.54
2018-12-16T17:16:08.703Z,23.57
2018-12-16T17:18:37.895Z,23.61
2018-12-16T17:21:06.746Z,23.64
2018-12-16T17:23:35.211Z,23.51
2018-12-16T17:26:03.815Z,23.61
2018-12-16T17:28:32.283Z,23.63
2018-12-16T17:31:00.827Z,23.58
2018-12-16T17:33:29.493Z,23.62
2018-12-16T17:35:57.968Z,23.64
2018-12-16T17:38:26.522Z,23.62
2018-12-16T17:41:00.230Z,23.61
2018-12-16T17:43:28.697Z,23.56
2018-12-16T17:45:57.168Z,23.62
2018-12-16T17:48:26.018Z,23.57
2018-12-16T17:50:54.502Z,23.61
2018-12-16T17:53:22.995Z,23.60
2018-12-16T17:55:51.510Z,23.63
2018-12-16T17:58:19.994Z,23.52
2018-12-16T18:00:48.611Z,23.58
2018-12-16T18:03:17.222Z,23.62
2018-12-16T18:05:45.731Z,23.64
2018-12-16T18:08:14.210Z,23.67
2018-12-16T18:10:47.846Z,23.63
2018-12-16T18:13:16.403Z,23.48
2018-12-16T18:15:44.886Z,23.57
2018-12-16T18:18:13.419Z,23.67
2018-12-16T18:20:41.960Z,23.60
2018-12-16T18:23:10.494Z,23.57
2018-12-16T18:25:39.229Z,23.63
2018-12-16T18:28:07.711Z,23.65
2018-12-16T18:30:36.219Z,23.66
2018-12-16T18:33:05.161Z,23.58
2018-12-16T18:35:33.627Z,23.60
2018-12-16T18:38:03.087Z,23.56
2018-12-16T18:40:31.690Z,23.61
2018-12-16T18:43:00.164Z,23.66
2018-12-16T18:45:28.631Z,23.61
2018-12-16T18:47:57.235Z,23.67
2018-12-16T18:50:25.694Z,23.64
2018-12-16T18:52:54.155Z,23.64
2018-12-16T18:55:22.786Z,23.64
2018-12-16T18:57:51.302Z,23.62
2018-12-16T19:00:19.766Z,23.64
2018-12-16T19:02:48.361Z,23.62
2018-12-16T19:05:17.855Z,23.69
2018-12-16T19:07:46.330Z,23.62
2018-12-16T19:10:15.419Z,23.64
2018-12-16T19:12:43.891Z,23.65
2018-12-16T19:15:13.181Z,23.66
2018-12-16T19:17:41.915Z,23.62
2018-12-16T19:20:10.378Z,23.55
2018-12-16T19:22:39.139Z,23.59
2018-12-16T19:25:07.618Z,23.55
2018-12-16T19:27:36.154Z,23.56
2018-12-16T19:30:05.014Z,23.63
2018-12-16T19:32:38.814Z,23.64
2018-12-16T19:35:08.522Z,23.63
2018-12-16T19:37:37.000Z,23.63
2018-12-16T19:40:05.630Z,23.62
2018-12-16T19:42:34.168Z,23.52
2018-12-16T19:45:02.640Z,23.62
2018-12-16T19:47:31.119Z,23.61
2018-12-16T19:49:59.727Z,23.59
2018-12-16T19:52:28.212Z,23.63
2018-12-16T19:54:57.387Z,23.67
2018-12-16T19:57:26.286Z,23.69
2018-12-16T19:59:54.838Z,23.65
2018-12-16T20:02:23.390Z,23.65
2018-12-16T20:04:57.047Z,23.66
2018-12-16T20:07:25.514Z,23.66
2018-12-16T20:09:54.006Z,23.59
2018-12-16T20:12:22.543Z,23.57
2018-12-16T20:14:50.998Z,23.58
2018-12-16T20:17:19.579Z,23.64
2018-12-16T20:19:48.744Z,23.68
2018-12-16T20:22:17.210Z,23.66
2018-12-16T20:24:45.690Z,23.66
2018-12-16T20:27:14.206Z,23.68
2018-12-16T20:29:42.747Z,23.65
2018-12-16T20:32:11.325Z,23.60
2018-12-16T20:34:39.811Z,23.64
2018-12-16T20:37:08.287Z,23.61
2018-12-16T20:39:36.951Z,23.65
2018-12-16T20:42:05.414Z,23.70
2018-12-16T20:44:33.911Z,23.63
2018-12-16T20:47:02.511Z,23.63
2018-12-16T20:49:30.986Z,23.61
2018-12-16T20:51:59.447Z,23.61
2018-12-16T20:54:27.985Z,23.60
2018-12-16T20:56:56.466Z,23.62
2018-12-16T20:59:24.934Z,23.63
2018-12-16T21:01:53.534Z,23.66
2018-12-16T21:04:22.019Z,23.68
2018-12-16T21:06:50.496Z,23.64
2018-12-16T21:09:19.104Z,23.62
2018-12-16T21:11:52.923Z,23.58
2018-12-16T21:14:26.900Z,23.66
2018-12-16T21:17:00.451Z,23.67
2018-12-16T21:19:29.499Z,23.63
2018-12-16T21:21:58.093Z,23.65
2018-12-16T21:24:26.547Z,23.67
2018-12-16T21:26:55.150Z,23.66
2018-12-16T21:29:23.642Z,23.66
2018-12-16T21:31:52.247Z,23.62
2018-12-16T21:34:20.855Z,23.65
2018-12-16T21:36:49.366Z,23.63
2018-12-16T21:39:17.851Z,23.66
2018-12-16T21:41:46.483Z,23.68
2018-12-16T21:44:14.955Z,23.70
2018-12-16T21:46:43.441Z,23.69
2018-12-16T21:49:12.098Z,23.67
2018-12-16T21:51:40.778Z,23.67
2018-12-16T21:54:09.245Z,23.65
2018-12-16T21:56:37.868Z,23.66
2018-12-16T21:59:06.343Z,23.66
2018-12-16T22:01:34.831Z,23.68
2018-12-16T22:04:03.987Z,23.66
2018-12-16T22:06:32.459Z,23.66
2018-12-16T22:09:00.938Z,23.71
2018-12-16T22:11:30.011Z,23.67
2018-12-16T22:13:58.475Z,23.65
2018-12-16T22:16:26.927Z,23.65
2018-12-16T22:18:55.540Z,23.65
2018-12-16T22:21:24.151Z,23.66
2018-12-16T22:23:52.646Z,23.57
2018-12-16T22:26:21.264Z,23.65
2018-12-16T22:28:49.746Z,23.74
2018-12-16T22:31:18.226Z,23.78
2018-12-16T22:33:47.070Z,23.78
2018-12-16T22:36:15.539Z,23.78
2018-12-16T22:38:44.047Z,23.74
2018-12-16T22:41:12.574Z,23.79
2018-12-16T22:43:41.323Z,23.81
2018-12-16T22:46:10.024Z,23.81
2018-12-16T22:48:38.559Z,23.82
2018-12-16T22:51:07.072Z,23.78
2018-12-16T22:53:35.535Z,23.83
2018-12-16T22:56:04.219Z,23.84
2018-12-16T22:58:32.697Z,23.82
2018-12-16T23:01:06.313Z,23.78
2018-12-16T23:03:34.901Z,23.81
2018-12-16T23:06:03.400Z,23.81
2018-12-16T23:08:32.032Z,23.84
2018-12-16T23:11:00.517Z,23.92
2018-12-16T23:13:28.995Z,23.86
2018-12-16T23:15:57.515Z,23.86
2018-12-16T23:18:25.983Z,23.89
2018-12-16T23:20:54.451Z,23.86
2018-12-16T23:23:23.489Z,23.85
2018-12-16T23:25:51.959Z,23.84
2018-12-16T23:28:20.559Z,23.82
2018-12-16T23:30:49.182Z,23.88
2018-12-16T23:33:17.696Z,23.91
2018-12-16T23:35:46.203Z,23.97
2018-12-16T23:38:14.743Z,23.91
2018-12-16T23:40:43.218Z,23.94
2018-12-16T23:43:11.699Z,23.94
2018-12-16T23:45:40.227Z,23.90
2018-12-16T23:48:08.738Z,23.93
2018-12-16T23:50:37.318Z,23.92
2018-12-16T23:53:06.169Z,23.89
2018-12-16T23:55:34.646Z,23.97
2018-12-16T23:58:03.120Z,23.97
